createdAt,value
2018-08-07T00:04:03.633Z,14.04
2018-08-07T00:09:58.687Z,12.55
2018-08-07T00:15:53.700Z,14.9
2018-08-07T00:21:48.644Z,14.53
2018-08-07T00:27:43.661Z,14.17
2018-08-07T00:33:38.695Z,12.47
2018-08-07T00:39:33.702Z,12.58
2018-08-07T00:45:28.710Z,13.12
2018-08-07T00:51:23.685Z,14.03
2018-08-07T00:57:18.731Z,17.6
2018-08-07T01:03:13.684Z,13.31
2018-08-07T01:09:08.684Z,13.21
2018-08-07T01:15:03.764Z,13.5
2018-08-07T01:20:58.679Z,17.19
2018-08-07T01:26:53.749Z,14.4
2018-08-07T01:32:48.709Z,14.7
2018-08-07T01:38:43.725Z,15.04
2018-08-07T01:44:38.764Z,13.85
2018-08-07T01:50:33.747Z,15.14
2018-08-07T01:56:28.764Z,16.98
2018-08-07T02:02:23.732Z,17.57
2018-08-07T02:08:18.734Z,16.9
2018-08-07T02:14:13.801Z,15.41
2018-08-07T02:20:08.784Z,14.05
2018-08-07T02:26:03.736Z,14.51
2018-08-07T02:31:58.799Z,14.42
2018-08-07T02:37:53.786Z,14.43
2018-08-07T02:43:48.742Z,18.34
2018-08-07T02:49:43.889Z,18.22
2018-08-07T02:55:38.786Z,16.42
2018-08-07T03:01:33.800Z,18.63
2018-08-07T03:07:28.908Z,16
2018-08-07T03:13:23.805Z,13.72
2018-08-07T03:19:18.881Z,14.81
2018-08-07T03:25:13.797Z,16.41
2018-08-07T03:31:08.838Z,17.81
2018-08-07T03:37:03.805Z,18.15
2018-08-07T03:42:58.855Z,15.94
2018-08-07T03:48:53.843Z,16.5
2018-08-07T03:54:48.833Z,17.17
2018-08-07T04:00:43.808Z,19.93
2018-08-07T04:06:38.843Z,16.72
2018-08-07T04:12:33.840Z,16.1
2018-08-07T04:18:28.828Z,17.58
2018-08-07T04:24:23.857Z,19.14
2018-08-07T04:30:18.865Z,19.91
2018-08-07T04:36:13.855Z,17.1
2018-08-07T04:42:08.867Z,21.95
2018-08-07T04:48:03.897Z,21.12
2018-08-07T04:53:58.892Z,19.03
2018-08-07T04:59:53.897Z,17.5
2018-08-07T05:05:48.872Z,18.83
2018-08-07T05:11:43.901Z,18.21
2018-08-07T05:17:38.907Z,24.22
2018-08-07T05:23:33.973Z,37.57
2018-08-07T05:29:28.926Z,28.91
2018-08-07T05:35:23.906Z,30.22
2018-08-07T05:41:18.909Z,23.58
2018-08-07T05:47:13.920Z,18.9
2018-08-07T05:53:08.970Z,22.47
2018-08-07T05:59:03.923Z,19.59
2018-08-07T06:04:58.947Z,18.78
2018-08-07T06:10:53.990Z,16.82
2018-08-07T06:16:48.950Z,20.82
2018-08-07T06:22:43.964Z,19.59
2018-08-07T06:28:38.998Z,19.23
2018-08-07T06:34:33.949Z,18.12
2018-08-07T06:40:28.975Z,21.43
2018-08-07T06:46:23.955Z,17.54
2018-08-07T06:52:18.977Z,20.96
2018-08-07T06:58:13.976Z,18.66
2018-08-07T07:04:08.972Z,17.77
2018-08-07T07:10:04.047Z,17.08
2018-08-07T07:15:59.016Z,17.83
2018-08-07T07:21:53.977Z,19.21
2018-08-07T07:27:49.002Z,16.8
2018-08-07T07:33:44.106Z,20.45
2018-08-07T07:39:39.017Z,19.07
2018-08-07T07:45:34.053Z,17.83
2018-08-07T07:51:29.048Z,19.12
2018-08-07T07:57:24.027Z,18.79
2018-08-07T08:03:19.044Z,17
2018-08-07T08:09:14.017Z,16.38
2018-08-07T08:15:09.118Z,15.75
2018-08-07T08:21:04.089Z,16.5
2018-08-07T08:26:59.045Z,15.44
2018-08-07T08:32:54.135Z,17.19
2018-08-07T08:38:49.118Z,18.34
2018-08-07T08:44:44.077Z,16.64
2018-08-07T08:50:39.114Z,15.95
2018-08-07T08:56:34.087Z,16.23
2018-08-07T09:02:29.173Z,16.24
2018-08-07T09:08:24.126Z,13.45
2018-08-07T09:14:19.105Z,14.49
2018-08-07T09:20:14.127Z,14.08
2018-08-07T09:26:09.292Z,13.3
2018-08-07T09:32:04.148Z,12.96
2018-08-07T09:37:59.128Z,12.96
2018-08-07T09:43:54.148Z,12.92
2018-08-07T09:49:49.186Z,12.57
2018-08-07T09:55:44.179Z,12.09
2018-08-07T10:01:39.167Z,12.53
2018-08-07T10:07:34.164Z,11.96
2018-08-07T10:13:29.136Z,11
2018-08-07T10:19:24.151Z,11.85
2018-08-07T10:25:19.160Z,10.3
2018-08-07T10:31:14.184Z,10.66
2018-08-07T10:37:09.201Z,9.86
2018-08-07T10:43:04.271Z,10.17
2018-08-07T10:48:59.163Z,10.3
2018-08-07T10:54:54.204Z,10.05
2018-08-07T11:00:49.249Z,9.61
2018-08-07T11:06:44.211Z,9.42
2018-08-07T11:12:39.197Z,8.02
2018-08-07T11:18:34.224Z,8.63
2018-08-07T11:24:29.320Z,8.47
2018-08-07T11:30:24.250Z,7.96
2018-08-07T11:36:19.204Z,8.42
2018-08-07T11:42:14.206Z,8.57
2018-08-07T11:48:09.327Z,7.69
2018-08-07T11:54:04.248Z,7.27
2018-08-07T11:59:59.239Z,6.31
2018-08-07T12:05:54.280Z,6.47
2018-08-07T12:11:49.276Z,6.27
2018-08-07T12:17:44.278Z,6.71
2018-08-07T12:23:39.263Z,6.05
2018-08-07T12:29:34.302Z,5.74
2018-08-07T12:35:29.280Z,5.08
2018-08-07T12:41:24.284Z,5.61
2018-08-07T12:47:19.317Z,5.12
2018-08-07T12:53:14.356Z,4.38
2018-08-07T12:59:09.304Z,5.27
2018-08-07T13:05:04.321Z,4.89
2018-08-07T13:10:59.334Z,4.84
2018-08-07T13:16:54.306Z,5.17
2018-08-07T13:22:49.326Z,4.68
2018-08-07T13:28:44.356Z,7.35
2018-08-07T13:34:39.370Z,7.55
2018-08-07T13:40:34.324Z,7.65
2018-08-07T13:46:29.393Z,9.6
2018-08-07T13:52:24.350Z,11.24
2018-08-07T13:58:19.436Z,7.9
2018-08-07T14:04:14.356Z,7.85
2018-08-07T14:10:09.400Z,7.32
2018-08-07T14:16:04.358Z,7.66
2018-08-07T14:21:59.447Z,7.6
2018-08-07T14:27:54.436Z,8.27
2018-08-07T14:33:49.414Z,7.98
2018-08-07T14:39:44.413Z,7.26
2018-08-07T14:45:39.422Z,6.85
2018-08-07T14:51:34.473Z,6.44
2018-08-07T14:57:29.456Z,5.89
2018-08-07T15:03:24.557Z,3.83
2018-08-07T15:09:19.404Z,4.62
2018-08-07T15:15:14.432Z,3.45
2018-08-07T15:21:09.474Z,3.74
2018-08-07T15:27:04.471Z,3.86
2018-08-07T15:32:59.504Z,3.65
2018-08-07T15:38:54.484Z,3.28
2018-08-07T15:44:49.438Z,3.41
2018-08-07T15:50:44.478Z,6.33
2018-08-07T15:56:39.503Z,3.06
2018-08-07T16:02:34.472Z,13.15
2018-08-07T16:08:29.473Z,3.65
2018-08-07T16:14:24.506Z,4.84
2018-08-07T16:20:19.492Z,4.02
2018-08-07T16:26:14.489Z,4.69
2018-08-07T16:32:09.533Z,5.63
2018-08-07T16:38:04.567Z,4.43
2018-08-07T16:43:59.579Z,4.35
2018-08-07T16:49:54.528Z,6.23
2018-08-07T16:55:49.571Z,5.96
2018-08-07T17:01:44.533Z,15.2
2018-08-07T17:07:39.525Z,6.32
2018-08-07T17:13:34.569Z,8.52
2018-08-07T17:19:29.546Z,6.59
2018-08-07T17:25:24.578Z,5.95
2018-08-07T17:31:19.574Z,4.86
2018-08-07T17:37:14.543Z,2.57
2018-08-07T17:43:09.652Z,2.78
2018-08-07T17:49:04.623Z,3.7
2018-08-07T17:54:59.586Z,1.45
2018-08-07T18:00:54.573Z,4.19
2018-08-07T18:06:49.603Z,2.02
2018-08-07T18:12:44.711Z,3.43
2018-08-07T18:18:39.642Z,2.15
2018-08-07T18:24:34.675Z,2.07
2018-08-07T18:30:29.651Z,2.92
2018-08-07T18:36:24.659Z,2.09
2018-08-07T18:42:19.655Z,3.15
2018-08-07T18:48:14.686Z,6.92
2018-08-07T18:54:09.638Z,7.13
2018-08-07T19:00:04.710Z,6.47
2018-08-07T19:05:59.625Z,12.79
2018-08-07T19:11:54.629Z,4.02
2018-08-07T19:17:49.757Z,5.29
2018-08-07T19:23:44.645Z,7.13
2018-08-07T19:29:39.694Z,5.94
2018-08-07T19:35:34.749Z,5.45
2018-08-07T19:41:29.636Z,7.44
2018-08-07T19:47:24.681Z,3.31
2018-08-07T19:53:19.746Z,4.24
2018-08-07T19:59:14.669Z,8.88
2018-08-07T20:05:09.728Z,5.37
2018-08-07T20:11:04.681Z,4.7
2018-08-07T20:16:59.819Z,6.27
2018-08-07T20:22:54.763Z,4.15
2018-08-07T20:28:49.698Z,3.98
2018-08-07T20:34:44.717Z,4.99
2018-08-07T20:40:39.749Z,7.73
2018-08-07T20:46:34.749Z,6.77
2018-08-07T20:52:29.762Z,7.08
2018-08-07T20:58:24.732Z,4.6
2018-08-07T21:04:19.732Z,4.59
2018-08-07T21:10:14.795Z,5.03
2018-08-07T21:16:09.849Z,4.44
2018-08-07T21:22:04.745Z,5.75
2018-08-07T21:27:59.756Z,7.59
2018-08-07T21:33:54.742Z,8.13
2018-08-07T21:39:49.795Z,9.86
2018-08-07T21:45:44.813Z,7.1
2018-08-07T21:51:39.912Z,12.34
2018-08-07T21:57:34.858Z,5.98
2018-08-07T22:03:29.816Z,5.39
2018-08-07T22:09:24.805Z,7.45
2018-08-07T22:15:19.821Z,8.19
2018-08-07T22:21:14.808Z,8.35
2018-08-07T22:27:09.815Z,6.07
2018-08-07T22:33:04.788Z,5.42
2018-08-07T22:38:59.807Z,7.53
2018-08-07T22:44:54.849Z,7.99
2018-08-07T22:50:49.855Z,6.73
2018-08-07T22:56:44.838Z,6.43
2018-08-07T23:02:39.841Z,6.99
2018-08-07T23:08:34.863Z,6.7
2018-08-07T23:14:29.889Z,6.77
2018-08-07T23:20:24.836Z,6.72
2018-08-07T23:26:19.862Z,6.99
2018-08-07T23:32:14.934Z,7.15
2018-08-07T23:38:09.859Z,7.26
2018-08-07T23:44:04.885Z,8.18
2018-08-07T23:49:59.874Z,14.45
2018-08-07T23:55:55.012Z,8.4
